Terminal Aerodrome Forecast
Issued by NWS Flagstaff, AZ

Home | Current Version | Previous Version | Text Only | Print | Product List | Glossary On
Versions: 1 2 3 4 5 6 7 8 9 10 11 12 13 14
000
FTUS45 KFGZ 240400 AAA
TAFINW
TAF AMD
KINW 240408Z 2404/2424 16010KT P6SM BKN110
      TEMPO 2404/2405 VRB15G25KT -TSRA BKN080CB
     FM240600 VRB05KT P6SM BKN100
     FM241800 21011KT P6SM BKN100=

USA.gov is the U.S. government's official web portal to all federal, state and local government web resources and services.